CheckWX is a tool to help pilots better visualize weather data.  It is not intended as a substitute for an official pre-flight weather briefing.

15:21:16 UTC

KIAD METAR
Washington Dulles International Airport
Washington, Virginia, USA
Current

29 mins ago

KIAD 211452Z 29013KT 10SM FEW050 FEW250 34/22 A2992 RMK AO2 SLP128 T03440222 58001
Observed
Jul-21 @ 14:52 UTC
Wind
  • 290° at 13 KTS
Visibility
10 SM
Flight Rules
VFR
Cloud Levels
  • Few at 5,000' AGL
  • Few at 25,000' AGL
Temperature
34°C / 93°F
Dewpoint
22°C / 72°F
Heat Index
38°C / 100°F
Humidity
49%
Altimeter
29.92" Hg
Pressure
1013.22 hPa
Previous

1 hour ago

KIAD 211352Z 30011KT 10SM FEW250 33/22 A2992 RMK AO2 SLP128 T03330217
Observed
Jul-21 @ 13:52 UTC
Wind
  • 300° at 11 KTS
Visibility
10 SM
Flight Rules
VFR
Cloud Levels
  • Few at 25,000' AGL
Temperature
33°C / 91°F
Dewpoint
22°C / 72°F
Heat Index
37°C / 98°F
Humidity
52%
Altimeter
29.92" Hg
Pressure
1013.22 hPa
Previous

2 hours ago

KIAD 211252Z 29006KT 10SM FEW250 32/22 A2993 RMK AO2 SLP130 T03220217
Observed
Jul-21 @ 12:52 UTC
Wind
  • 290° at 6 KTS
Visibility
10 SM
Flight Rules
VFR
Cloud Levels
  • Few at 25,000' AGL
Temperature
32°C / 90°F
Dewpoint
22°C / 72°F
Heat Index
36°C / 97°F
Humidity
55%
Altimeter
29.93" Hg
Pressure
1013.52 hPa